Time;durP1;ratioP1;P1;durP2;ratioP2;P2;SDS_P1;SDS_P2;PMS_P1;PMS_P2;Temp;Humidity;BMP_temperature;BMP_pressure;BME280_temperature;BME280_humidity;BME280_pressure;Samples;Min_cycle;Max_cycle;Signal;HPM_P1;HPM_P2
2023/12/30 00:01:47;;;;;;;5.00;1.02;;;;;;;7.67;99.23;100500.41;10533571;27;20058;-59
2023/12/30 00:07:09;;;;;;;3.85;1.05;;;;;;;7.58;100.00;100489.50;10510860;28;20063;-58
2023/12/30 00:12:31;;;;;;;7.07;1.17;;;;;;;7.55;100.00;100497.28;10533898;27;20047;-58
2023/12/30 00:17:53;;;;;;;4.28;0.90;;;;;;;7.52;100.00;100499.94;10526408;27;20062;-58
2023/12/30 00:23:15;;;;;;;3.65;1.30;;;;;;;7.49;100.00;100503.41;10544989;27;20094;-59
2023/12/30 00:28:37;;;;;;;4.57;1.25;;;;;;;7.47;100.00;100506.91;10525032;28;20761;-58
2023/12/30 00:34:00;;;;;;;4.60;1.50;;;;;;;7.46;100.00;100515.50;10531118;27;20062;-59
2023/12/30 00:39:23;;;;;;;6.65;1.20;;;;;;;7.57;100.00;100523.84;10531656;28;20044;-59
2023/12/30 00:44:44;;;;;;;5.95;1.33;;;;;;;7.59;100.00;100535.81;10537099;27;20400;-59
2023/12/30 00:50:07;;;;;;;6.85;1.23;;;;;;;7.72;98.89;100533.78;10538575;28;20587;-59
2023/12/30 00:55:28;;;;;;;4.57;1.38;;;;;;;7.72;99.42;100538.94;10538712;27;20090;-59
2023/12/30 01:00:51;;;;;;;7.18;1.40;;;;;;;7.74;99.01;100526.88;10536085;28;20409;-59
2023/12/30 01:06:13;;;;;;;13.10;1.45;;;;;;;7.74;98.80;100542.31;10530960;28;20055;-59
2023/12/30 01:11:35;;;;;;;8.60;1.30;;;;;;;7.70;98.83;100562.16;10536933;28;20044;-59
2023/12/30 01:16:56;;;;;;;9.02;1.17;;;;;;;7.70;98.63;100569.03;10534255;28;20060;-59
2023/12/30 01:22:18;;;;;;;10.27;1.38;;;;;;;7.60;98.57;100576.09;10536581;28;20162;-59
2023/12/30 01:27:40;;;;;;;7.63;1.38;;;;;;;7.58;98.96;100572.72;10524649;28;20051;-59
2023/12/30 01:33:01;;;;;;;6.95;1.13;;;;;;;7.54;98.71;100580.56;10533059;28;20055;-59
2023/12/30 01:38:24;;;;;;;3.72;1.05;;;;;;;7.53;99.07;100579.69;10533859;28;20070;-59
2023/12/30 01:43:45;;;;;;;8.75;1.55;;;;;;;7.46;99.87;100585.84;10532787;28;20122;-58
2023/12/30 01:49:07;;;;;;;6.38;1.20;;;;;;;7.45;99.70;100585.91;10541080;27;20189;-58
2023/12/30 01:54:30;;;;;;;8.15;1.70;;;;;;;7.49;99.50;100582.38;10545669;27;20042;-58
2023/12/30 01:59:52;;;;;;;7.20;1.17;;;;;;;7.46;99.50;100587.56;10534794;27;20055;-59
2023/12/30 02:05:14;;;;;;;10.25;1.48;;;;;;;7.46;100.00;100592.72;10542137;27;20048;-58
2023/12/30 02:10:37;;;;;;;8.98;1.48;;;;;;;7.48;99.27;100588.41;10535727;27;20117;-59
2023/12/30 02:15:59;;;;;;;8.30;1.40;;;;;;;7.48;98.77;100591.81;10541921;27;20052;-59
2023/12/30 02:21:21;;;;;;;7.60;1.30;;;;;;;7.53;97.84;100584.00;10544772;27;20565;-59
2023/12/30 02:26:42;;;;;;;10.98;1.25;;;;;;;7.52;97.54;100583.16;10536738;27;20491;-58
2023/12/30 02:32:05;;;;;;;9.90;1.70;;;;;;;7.49;96.47;100595.25;10533486;27;20052;-58
2023/12/30 02:37:26;;;;;;;7.18;1.50;;;;;;;7.47;96.09;100589.28;10524142;27;20373;-60
2023/12/30 02:42:48;;;;;;;8.23;1.02;;;;;;;7.47;96.13;100597.00;10529797;27;20167;-59
2023/12/30 02:48:10;;;;;;;12.13;1.80;;;;;;;7.41;96.24;100612.56;10532369;27;20060;-59
2023/12/30 02:53:32;;;;;;;8.50;1.42;;;;;;;7.43;96.02;100628.84;10530195;27;20052;-59
2023/12/30 02:58:56;;;;;;;9.65;1.40;;;;;;;7.43;95.92;100634.84;10542927;27;20052;-59
2023/12/30 03:04:17;;;;;;;8.38;1.10;;;;;;;7.43;95.70;100636.56;10549145;27;20043;-59
2023/12/30 03:09:39;;;;;;;13.55;1.52;;;;;;;7.55;94.20;100644.03;10546912;27;20048;-59
2023/12/30 03:15:01;;;;;;;8.60;1.20;;;;;;;7.53;94.16;100636.34;10561630;27;20043;-59
2023/12/30 03:20:23;;;;;;;5.22;1.23;;;;;;;7.55;93.96;100633.72;10560391;27;20500;-59
2023/12/30 03:25:44;;;;;;;5.78;1.27;;;;;;;7.61;93.59;100628.44;10555270;27;20044;-59
2023/12/30 03:31:07;;;;;;;8.63;1.33;;;;;;;7.68;92.84;100627.44;10554200;27;20499;-59
2023/12/30 03:36:29;;;;;;;17.13;1.55;;;;;;;7.68;92.80;100635.16;10549484;27;20134;-59
2023/12/30 03:41:51;;;;;;;9.63;1.23;;;;;;;7.60;93.30;100648.19;10537487;27;20142;-59
2023/12/30 03:47:13;;;;;;;6.00;1.00;;;;;;;7.66;93.54;100644.63;10533852;27;20039;-59
2023/12/30 03:52:35;;;;;;;4.65;1.23;;;;;;;7.67;93.18;100664.38;10549570;27;20043;-60
2023/12/30 03:57:57;;;;;;;13.07;1.52;;;;;;;7.69;93.18;100663.44;10560596;27;20061;-59
2023/12/30 04:03:19;;;;;;;8.38;1.05;;;;;;;7.67;93.60;100648.94;10548298;27;20043;-58
2023/12/30 04:08:40;;;;;;;10.63;1.50;;;;;;;7.64;93.17;100659.28;10545908;27;20134;-59
2023/12/30 04:14:02;;;;;;;7.43;1.02;;;;;;;7.63;93.71;100662.75;10547916;27;20047;-59
2023/12/30 04:19:24;;;;;;;7.70;1.10;;;;;;;7.62;93.70;100661.88;10564104;27;20043;-59
2023/12/30 04:24:46;;;;;;;7.28;1.17;;;;;;;7.61;93.50;100667.94;10547249;27;20040;-59
2023/12/30 04:30:08;;;;;;;12.65;1.50;;;;;;;7.67;93.72;100664.38;10545562;27;20397;-59
2023/12/30 04:35:29;;;;;;;5.03;1.05;;;;;;;7.63;93.81;100683.34;10542800;27;20063;-60
2023/12/30 04:40:51;;;;;;;9.52;1.55;;;;;;;7.58;93.88;100674.88;10547359;27;20040;-60
2023/12/30 04:46:13;;;;;;;8.48;1.30;;;;;;;7.51;94.18;100681.03;10540034;28;20058;-60
2023/12/30 04:51:36;;;;;;;7.78;1.42;;;;;;;7.49;94.65;100675.88;10542741;28;20044;-59
2023/12/30 04:56:58;;;;;;;14.07;1.70;;;;;;;7.52;94.33;100685.28;10543322;27;20050;-60
2023/12/30 05:02:19;;;;;;;15.20;1.23;;;;;;;7.46;94.49;100682.81;10550909;28;20058;-58
2023/12/30 05:07:41;;;;;;;9.30;1.25;;;;;;;7.45;94.38;100696.59;10543154;28;20146;-59
2023/12/30 05:13:03;;;;;;;10.07;1.60;;;;;;;7.40;93.82;100700.97;10539581;28;20054;-59
2023/12/30 05:18:26;;;;;;;12.13;1.67;;;;;;;7.40;94.49;100706.13;10544497;28;20063;-59
2023/12/30 05:23:47;;;;;;;12.70;1.52;;;;;;;7.33;94.35;100720.81;10551808;27;20143;-59
2023/12/30 05:29:09;;;;;;;10.38;1.83;;;;;;;7.28;94.43;100737.22;10563459;27;20070;-59
2023/12/30 05:34:31;;;;;;;9.85;1.38;;;;;;;7.25;93.73;100743.28;10539297;27;20040;-59
2023/12/30 05:39:52;;;;;;;9.98;1.50;;;;;;;7.16;94.12;100758.03;10554051;27;20129;-59
2023/12/30 05:45:14;;;;;;;9.52;1.40;;;;;;;7.20;93.40;100759.69;10554599;27;20044;-58
2023/12/30 05:50:39;;;;;;;10.02;1.42;;;;;;;7.12;94.41;100752.91;10555248;27;20043;-59
2023/12/30 05:56:01;;;;;;;8.50;1.30;;;;;;;7.10;93.94;100764.97;10556993;27;20071;-59
2023/12/30 06:01:22;;;;;;;9.65;2.00;;;;;;;7.12;93.99;100773.50;10551991;27;20138;-59
2023/12/30 06:06:44;;;;;;;10.13;1.48;;;;;;;7.10;94.20;100764.13;10540488;27;20052;-59
2023/12/30 06:12:07;;;;;;;8.15;1.63;;;;;;;7.08;94.32;100774.44;10546249;27;20112;-59
2023/12/30 06:17:29;;;;;;;8.75;1.75;;;;;;;7.03;94.49;100777.97;10551984;27;20058;-59
2023/12/30 06:22:51;;;;;;;12.05;2.00;;;;;;;7.02;95.22;100791.69;10549070;27;20176;-59
2023/12/30 06:28:12;;;;;;;12.77;1.60;;;;;;;7.10;94.59;100784.72;10553439;27;20423;-60
2023/12/30 06:33:34;;;;;;;7.78;1.52;;;;;;;6.99;95.25;100792.63;10554234;27;20036;-59
2023/12/30 06:38:56;;;;;;;12.63;1.83;;;;;;;6.99;94.86;100797.75;10541379;27;20414;-60
2023/12/30 06:44:18;;;;;;;10.52;1.50;;;;;;;6.97;94.68;100802.06;10550013;27;20043;-59
2023/12/30 06:49:40;;;;;;;11.88;1.48;;;;;;;6.95;95.10;100815.81;10550650;27;20051;-59
2023/12/30 06:55:02;;;;;;;10.85;1.48;;;;;;;6.93;95.09;100812.41;10545053;27;20054;-59
2023/12/30 07:00:39;;;;;;;13.18;1.80;;;;;;;6.97;95.18;100814.94;10553685;27;20048;-60
2023/12/30 07:06:01;;;;;;;12.30;1.90;;;;;;;6.90;95.01;100822.78;10556795;27;20058;-60
2023/12/30 07:11:23;;;;;;;13.43;1.70;;;;;;;6.85;95.81;100824.53;10545282;27;20518;-59
2023/12/30 07:16:50;;;;;;;11.25;1.60;;;;;;;6.84;95.44;100853.72;10553859;27;20408;-59
2023/12/30 07:22:12;;;;;;;9.38;1.63;;;;;;;6.89;96.04;100857.06;10548365;27;20403;-58
2023/12/30 07:27:34;;;;;;;13.82;1.77;;;;;;;6.92;95.88;100862.19;10548887;27;20047;-59
2023/12/30 07:32:56;;;;;;;11.27;2.25;;;;;;;6.93;95.87;100874.16;10552632;27;20042;-59
2023/12/30 07:38:17;;;;;;;17.40;1.70;;;;;;;7.04;95.32;100872.25;10544803;27;20098;-59
2023/12/30 07:43:39;;;;;;;14.68;1.58;;;;;;;7.07;94.48;100878.22;10552942;27;20043;-59
2023/12/30 07:49:01;;;;;;;17.30;1.75;;;;;;;7.13;94.39;100878.13;10545648;27;20040;-60
2023/12/30 07:54:23;;;;;;;11.82;1.75;;;;;;;7.11;94.84;100895.31;10546992;27;20036;-61
2023/12/30 07:59:45;;;;;;;21.60;2.13;;;;;;;7.09;94.30;100912.50;10535797;27;20509;-59
2023/12/30 08:05:07;;;;;;;18.85;2.30;;;;;;;7.18;94.30;100923.53;10547971;27;20047;-58
2023/12/30 08:10:29;;;;;;;9.95;1.95;;;;;;;7.21;94.19;100915.75;10533184;27;20050;-59
2023/12/30 08:15:51;;;;;;;7.63;1.30;;;;;;;7.27;93.87;100923.41;10544089;28;20122;-59
2023/12/30 08:21:13;;;;;;;14.82;1.95;;;;;;;7.39;93.45;100925.75;10540830;27;20080;-59
2023/12/30 08:26:34;;;;;;;16.27;1.83;;;;;;;7.40;93.55;100940.34;10548125;27;20066;-59
2023/12/30 08:31:58;;;;;;;10.68;1.95;;;;;;;7.44;92.74;100948.00;10539936;27;20063;-59
2023/12/30 08:37:20;;;;;;;9.02;1.70;;;;;;;7.58;91.84;100952.94;10549030;27;20061;-59
2023/12/30 08:42:44;;;;;;;10.75;1.60;;;;;;;7.51;92.45;100967.59;10535064;27;20043;-59
2023/12/30 08:48:06;;;;;;;16.48;2.15;;;;;;;7.54;92.32;100962.44;10541206;27;20062;-59
2023/12/30 08:53:28;;;;;;;10.20;1.48;;;;;;;7.62;92.47;100980.31;10540827;28;20055;-59
2023/12/30 08:58:49;;;;;;;9.23;1.55;;;;;;;7.61;92.75;100991.50;10550265;28;20467;-61
2023/12/30 09:04:11;;;;;;;12.15;1.58;;;;;;;7.68;92.69;101019.72;10543481;28;20178;-61
2023/12/30 09:09:34;;;;;;;12.27;1.92;;;;;;;7.66;92.49;101018.03;10519464;28;20044;-59
2023/12/30 09:14:55;;;;;;;12.50;1.60;;;;;;;7.66;92.53;101025.75;10544293;28;20511;-59
2023/12/30 09:20:17;;;;;;;8.73;1.83;;;;;;;7.67;92.68;101014.59;10526978;28;20043;-59
2023/12/30 09:25:39;;;;;;;14.30;1.85;;;;;;;7.68;93.00;101026.56;10524710;28;20066;-61
2023/12/30 09:31:01;;;;;;;17.45;1.60;;;;;;;7.67;92.66;101035.19;10543137;28;20423;-60
2023/12/30 09:36:23;;;;;;;10.77;1.75;;;;;;;7.72;92.41;101043.69;10541160;28;20127;-61
2023/12/30 09:41:45;;;;;;;17.80;2.05;;;;;;;7.77;92.42;101037.59;10551121;28;20044;-59
2023/12/30 09:47:11;;;;;;;14.02;2.35;;;;;;;7.75;92.64;101043.63;10549220;28;20043;-59
2023/12/30 09:52:32;;;;;;;14.00;1.73;;;;;;;7.73;92.83;101029.94;10547821;28;20067;-60
2023/12/30 09:57:54;;;;;;;10.85;1.70;;;;;;;7.75;92.73;101039.34;10534213;28;20059;-59
2023/12/30 10:03:18;;;;;;;6.97;1.58;;;;;;;7.76;92.24;101045.34;10547231;28;20054;-61
2023/12/30 10:08:44;;;;;;;14.50;1.98;;;;;;;7.77;92.05;101053.06;10551545;27;20091;-60
2023/12/30 10:14:06;;;;;;;12.57;1.73;;;;;;;7.73;92.27;101053.09;10555789;27;20450;-60
2023/12/30 10:19:28;;;;;;;13.93;1.55;;;;;;;7.81;91.90;101062.44;10556188;27;20324;-59
2023/12/30 10:24:49;;;;;;;17.27;1.80;;;;;;;7.86;91.43;101052.91;10554385;27;20112;-59
2023/12/30 10:30:17;;;;;;;9.18;1.65;;;;;;;7.92;91.60;101062.28;10554479;27;20060;-58
2023/12/30 10:35:40;;;;;;;13.18;1.77;;;;;;;7.97;90.76;101063.03;10539922;27;20182;-60
2023/12/30 10:41:02;;;;;;;14.32;1.90;;;;;;;8.02;90.27;101069.00;10548774;27;20055;-60
2023/12/30 10:46:25;;;;;;;16.90;1.92;;;;;;;8.06;89.96;101062.91;10549850;27;20480;-59
2023/12/30 10:51:48;;;;;;;18.38;2.35;;;;;;;8.07;90.42;101062.03;10537955;27;20051;-59
2023/12/30 10:57:14;;;;;;;11.25;2.20;;;;;;;8.11;89.73;101074.00;10535059;27;20055;-59
2023/12/30 11:02:37;;;;;;;10.18;1.70;;;;;;;8.10;88.97;101072.28;10547583;27;20134;-59
2023/12/30 11:07:59;;;;;;;11.90;2.00;;;;;;;8.12;89.19;101073.97;10550293;27;20071;-59
2023/12/30 11:13:20;;;;;;;13.68;2.30;;;;;;;8.16;89.29;101061.88;10549104;27;20040;-59
2023/12/30 11:18:50;;;;;;;8.77;1.65;;;;;;;8.29;88.56;101075.44;10539317;28;20055;-60
2023/12/30 11:24:18;;;;;;;11.27;2.15;;;;;;;8.26;88.71;101089.22;10538365;27;20044;-59
2023/12/30 11:29:46;;;;;;;10.93;1.58;;;;;;;8.29;88.00;101084.03;10549764;27;20050;-59
2023/12/30 11:35:09;;;;;;;10.85;2.13;;;;;;;8.42;87.73;101075.22;10540198;27;20048;-61
2023/12/30 11:40:39;;;;;;;12.98;2.17;;;;;;;8.37;88.28;101077.00;10534176;27;20506;-58
2023/12/30 11:46:03;;;;;;;17.13;2.97;;;;;;;8.39;88.35;101089.91;10547700;27;20502;-59
2023/12/30 11:51:25;;;;;;;14.85;2.53;;;;;;;8.43;87.86;101094.09;10536565;27;20135;-59
2023/12/30 11:56:47;;;;;;;16.02;2.97;;;;;;;8.41;88.07;101090.69;10545867;27;20039;-59
2023/12/30 12:02:13;;;;;;;16.90;3.10;;;;;;;8.42;88.20;101089.84;10538866;27;20062;-59
2023/12/30 12:07:36;;;;;;;16.00;3.17;;;;;;;8.47;88.31;101083.72;10549312;27;20056;-59
2023/12/30 12:12:58;;;;;;;11.13;2.95;;;;;;;8.51;88.72;101085.38;10528807;27;20044;-58
2023/12/30 12:18:21;;;;;;;11.40;2.72;;;;;;;8.56;88.06;101078.41;10543454;27;20127;-58
2023/12/30 12:23:43;;;;;;;15.98;2.72;;;;;;;8.58;88.67;101081.81;10544800;27;20040;-59
2023/12/30 12:29:05;;;;;;;14.77;2.40;;;;;;;8.59;88.48;101077.50;10554124;27;20051;-59
2023/12/30 12:34:26;;;;;;;16.55;2.58;;;;;;;8.60;88.63;101074.91;10542741;27;20044;-59
2023/12/30 12:39:48;;;;;;;12.75;2.40;;;;;;;8.66;88.13;101079.91;10542135;27;20407;-59
2023/12/30 12:45:10;;;;;;;13.35;2.47;;;;;;;8.72;88.27;101082.41;10539089;27;20051;-59
2023/12/30 12:50:34;;;;;;;8.50;2.08;;;;;;;8.72;88.27;101066.91;10538778;28;20043;-59
2023/12/30 12:55:56;;;;;;;10.90;1.90;;;;;;;8.76;88.42;101060.84;10539141;28;20046;-60
2023/12/30 13:01:18;;;;;;;10.15;1.70;;;;;;;8.88;87.76;101065.75;10535274;27;20043;-59
2023/12/30 13:06:39;;;;;;;8.10;1.73;;;;;;;8.88;87.38;101049.44;10537169;28;20570;-59
2023/12/30 13:12:05;;;;;;;8.45;1.88;;;;;;;8.87;87.57;101058.91;10550074;28;20399;-59
2023/12/30 13:17:26;;;;;;;11.50;1.70;;;;;;;8.88;87.39;101065.75;10547444;28;20086;-59
2023/12/30 13:22:55;;;;;;;11.30;1.90;;;;;;;8.90;87.69;101063.16;10542808;28;20773;-59
2023/12/30 13:28:16;;;;;;;10.52;1.70;;;;;;;8.89;88.09;101054.56;10559545;28;20056;-58
2023/12/30 13:33:38;;;;;;;14.73;1.70;;;;;;;8.89;88.49;101056.28;10547455;28;20130;-59
2023/12/30 13:39:10;;;;;;;9.63;1.90;;;;;;;8.91;88.78;101052.81;10546164;28;20052;-60
2023/12/30 13:44:40;;;;;;;10.35;1.65;;;;;;;8.96;88.89;101047.53;10550378;27;20048;-59
2023/12/30 13:55:38;;;;;;;18.70;2.80;;;;;;;8.85;90.28;101045.16;10546134;27;20048;-59
2023/12/30 14:01:00;;;;;;;10.50;1.90;;;;;;;8.84;90.86;101053.81;10558862;27;20140;-59
2023/12/30 14:06:29;;;;;;;10.93;1.90;;;;;;;8.84;91.01;101042.63;10551660;27;20073;-59
2023/12/30 14:11:57;;;;;;;11.52;1.65;;;;;;;8.82;90.79;101039.22;10556972;27;20058;-59
2023/12/30 14:17:20;;;;;;;10.23;2.30;;;;;;;8.86;91.01;101033.13;10555955;27;20075;-59
2023/12/30 14:22:42;;;;;;;16.33;2.10;;;;;;;8.81;91.80;101033.22;10541740;27;20842;-59
2023/12/30 14:28:04;;;;;;;9.23;2.05;;;;;;;8.78;92.10;101028.13;10557272;27;20109;-59
2023/12/30 14:33:26;;;;;;;17.77;2.60;;;;;;;8.76;92.71;101029.00;10554204;27;20063;-59
2023/12/30 14:38:48;;;;;;;10.40;1.92;;;;;;;8.75;93.18;101033.31;10556013;27;20055;-58
2023/12/30 14:44:09;;;;;;;10.50;2.10;;;;;;;8.75;93.51;101030.72;10550567;27;20051;-59
2023/12/30 14:49:31;;;;;;;13.82;2.50;;;;;;;8.76;93.80;101034.16;10531164;27;20383;-59
2023/12/30 14:54:53;;;;;;;12.38;2.60;;;;;;;8.76;94.08;101035.03;10544906;27;20396;-59
2023/12/30 15:00:24;;;;;;;16.60;2.40;;;;;;;8.80;94.41;101035.81;10541518;27;20062;-58
2023/12/30 15:05:45;;;;;;;12.48;2.25;;;;;;;8.77;94.76;101028.97;10549741;27;20062;-60
2023/12/30 15:11:08;;;;;;;18.13;2.92;;;;;;;8.75;95.25;101028.16;10547781;27;20147;-58
2023/12/30 15:16:30;;;;;;;18.13;3.10;;;;;;;8.77;95.76;101034.13;10549822;27;20448;-58
2023/12/30 15:21:52;;;;;;;15.48;2.75;;;;;;;8.77;96.15;101036.72;10548707;27;20066;-60
2023/12/30 15:27:14;;;;;;;21.90;3.35;;;;;;;8.79;96.55;101039.28;10547119;27;20138;-59
2023/12/30 15:32:39;;;;;;;26.48;3.22;;;;;;;8.82;96.91;101039.22;10548962;27;20067;-59
2023/12/30 15:38:04;;;;;;;14.35;3.67;;;;;;;8.80;97.17;101036.69;10555574;27;20071;-59
2023/12/30 15:43:29;;;;;;;17.83;3.90;;;;;;;8.82;97.33;101040.09;10557853;27;20953;-58
2023/12/30 15:48:51;;;;;;;19.60;5.05;;;;;;;8.82;97.28;101040.09;10547483;27;20051;-61
2023/12/30 15:54:13;;;;;;;21.63;4.75;;;;;;;8.82;98.00;101040.09;10527354;27;20126;-59
2023/12/30 15:59:35;;;;;;;18.05;5.25;;;;;;;8.80;98.46;101036.69;10541035;27;20568;-59
2023/12/30 16:04:57;;;;;;;22.08;5.05;;;;;;;8.84;98.40;101038.31;10544364;27;20071;-59
2023/12/30 16:10:19;;;;;;;23.30;5.95;;;;;;;8.84;98.48;101033.16;10553007;27;20088;-59
2023/12/30 16:15:50;;;;;;;21.90;5.88;;;;;;;8.82;98.58;101040.09;10535729;27;20454;-59
2023/12/30 16:21:15;;;;;;;17.50;6.25;;;;;;;8.82;98.68;101042.66;10552323;27;20051;-59
2023/12/30 16:26:41;;;;;;;22.38;6.53;;;;;;;8.81;99.01;101040.09;10543692;27;20531;-59
2023/12/30 16:32:04;;;;;;;20.20;6.50;;;;;;;8.82;99.02;101039.22;10556243;27;20127;-63
2023/12/30 16:37:27;;;;;;;20.67;6.32;;;;;;;8.84;99.23;101047.78;10549530;27;20055;-59
2023/12/30 16:42:49;;;;;;;24.50;6.60;;;;;;;8.83;99.66;101033.16;10544160;27;20054;-59
2023/12/30 16:48:11;;;;;;;23.23;7.22;;;;;;;8.85;99.91;101040.00;10548087;27;20612;-59
2023/12/30 16:53:32;;;;;;;18.67;6.50;;;;;;;8.88;99.94;101029.63;10545657;27;20092;-61
2023/12/30 16:58:58;;;;;;;23.92;7.45;;;;;;;8.88;100.00;101032.19;10548033;27;20464;-58
2023/12/30 17:04:22;;;;;;;21.58;8.25;;;;;;;8.90;100.00;101029.63;10547451;28;20036;-58
2023/12/30 17:09:44;;;;;;;20.83;7.68;;;;;;;8.94;100.00;101034.66;10566923;28;20198;-59
2023/12/30 17:15:06;;;;;;;22.88;7.60;;;;;;;8.92;100.00;101036.44;10553585;28;20047;-59
2023/12/30 17:20:27;;;;;;;26.75;7.30;;;;;;;8.93;100.00;101022.66;10555367;27;20045;-58
2023/12/30 17:25:49;;;;;;;21.52;7.00;;;;;;;8.92;100.00;101020.09;10558547;27;20048;-59
2023/12/30 17:31:11;;;;;;;18.88;6.38;;;;;;;8.93;100.00;101022.66;10559881;27;20054;-59
2023/12/30 17:36:33;;;;;;;18.50;6.10;;;;;;;8.94;100.00;101023.47;10552639;27;20052;-60
2023/12/30 17:41:54;;;;;;;23.73;6.30;;;;;;;8.90;100.00;101030.44;10549635;27;20403;-59
2023/12/30 17:47:18;;;;;;;21.40;6.30;;;;;;;8.90;100.00;101032.19;10557555;27;20043;-59
2023/12/30 17:52:40;;;;;;;23.02;6.10;;;;;;;8.90;100.00;101034.78;10553463;27;20137;-59
2023/12/30 17:58:01;;;;;;;25.30;5.93;;;;;;;8.88;100.00;101029.63;10553011;27;20066;-59
2023/12/30 18:03:23;;;;;;;25.85;6.07;;;;;;;8.87;100.00;101025.34;10571573;27;20044;-59
2023/12/30 18:08:45;;;;;;;21.75;6.50;;;;;;;8.89;100.00;101020.16;10529539;27;20408;-59
2023/12/30 18:14:11;;;;;;;22.88;6.50;;;;;;;8.88;100.00;101016.72;10536968;27;20035;-59
2023/12/30 18:19:32;;;;;;;17.27;6.03;;;;;;;8.88;100.00;101008.97;10553515;27;20071;-59
2023/12/30 18:24:54;;;;;;;18.52;5.75;;;;;;;8.90;100.00;101007.22;10552826;27;20055;-61
2023/12/30 18:30:16;;;;;;;25.02;6.38;;;;;;;8.91;100.00;101002.91;10555520;27;20138;-59
2023/12/30 18:35:38;;;;;;;24.10;6.75;;;;;;;8.89;100.00;100994.34;10543512;27;20818;-60
2023/12/30 18:41:00;;;;;;;27.55;6.72;;;;;;;8.88;100.00;101000.41;10534498;27;20074;-59
2023/12/30 18:46:21;;;;;;;22.63;5.55;;;;;;;8.86;100.00;100992.66;10557402;27;20129;-59
2023/12/30 18:51:43;;;;;;;18.63;5.63;;;;;;;8.82;100.00;100995.38;10543297;27;20464;-59
2023/12/30 18:57:05;;;;;;;15.48;5.05;;;;;;;8.78;100.00;100992.00;10543673;27;20094;-59
2023/12/30 19:02:26;;;;;;;14.45;5.22;;;;;;;8.75;100.00;100992.03;10546578;27;20109;-61
2023/12/30 19:07:48;;;;;;;17.75;4.80;;;;;;;8.72;100.00;100991.25;10542971;27;20048;-60
2023/12/30 19:13:10;;;;;;;16.70;4.75;;;;;;;8.68;100.00;100980.16;10525633;27;20054;-59
2023/12/30 19:18:32;;;;;;;15.82;4.72;;;;;;;8.69;100.00;100970.69;10540284;27;20055;-59
2023/12/30 19:23:54;;;;;;;12.52;4.28;;;;;;;8.71;100.00;100963.78;10542815;27;20432;-59
2023/12/30 19:29:19;;;;;;;24.52;4.32;;;;;;;8.74;100.00;100956.81;10518625;27;20958;-59
2023/12/30 19:34:41;;;;;;;19.27;4.00;;;;;;;8.75;100.00;100958.50;10537485;27;20110;-59
2023/12/30 19:40:05;;;;;;;22.92;4.20;;;;;;;8.77;100.00;100954.16;10524773;27;20059;-59
2023/12/30 19:45:26;;;;;;;14.32;4.22;;;;;;;8.79;100.00;100942.09;10544995;27;20158;-59
2023/12/30 19:50:48;;;;;;;17.85;4.45;;;;;;;8.82;99.52;100942.03;10535745;27;20583;-60
2023/12/30 19:56:09;;;;;;;17.30;3.92;;;;;;;8.85;99.96;100931.66;10534429;28;20496;-59
2023/12/30 20:01:32;;;;;;;15.52;3.97;;;;;;;8.84;99.71;100924.81;10547130;27;20051;-59
2023/12/30 20:06:54;;;;;;;17.85;3.85;;;;;;;8.86;99.67;100915.25;10544374;27;20043;-59
2023/12/30 20:12:16;;;;;;;14.07;4.20;;;;;;;8.86;99.24;100917.84;10545456;27;20040;-59
2023/12/30 20:17:37;;;;;;;16.00;3.58;;;;;;;8.88;98.47;100923.81;10544798;27;20046;-60
2023/12/30 20:22:59;;;;;;;13.85;4.00;;;;;;;8.87;99.16;100914.41;10549148;27;20055;-59
2023/12/30 20:28:22;;;;;;;19.02;3.65;;;;;;;8.87;98.75;100898.06;10547729;27;20572;-59
2023/12/30 20:33:46;;;;;;;20.80;6.10;;;;;;;8.89;99.79;100896.31;10552924;27;20047;-59
2023/12/30 20:39:08;;;;;;;16.88;4.45;;;;;;;8.89;100.00;100891.13;10538875;27;20063;-59
2023/12/30 20:44:30;;;;;;;19.42;4.28;;;;;;;8.87;100.00;100882.59;10521718;27;20047;-59
2023/12/30 20:49:52;;;;;;;19.80;5.32;;;;;;;8.82;100.00;100880.13;10543182;27;20535;-59
2023/12/30 20:55:18;;;;;;;12.02;4.47;;;;;;;8.80;100.00;100881.88;10536325;28;20036;-59
2023/12/30 21:00:41;;;;;;;17.02;4.68;;;;;;;8.76;100.00;100880.25;10528566;28;20486;-60
2023/12/30 21:06:03;;;;;;;15.65;4.15;;;;;;;8.76;100.00;100875.09;10544395;28;20047;-59
2023/12/30 21:11:25;;;;;;;12.50;3.80;;;;;;;8.77;100.00;100870.78;10543243;28;20059;-59
2023/12/30 21:16:47;;;;;;;16.35;3.55;;;;;;;8.81;100.00;100855.19;10525922;28;20048;-59
2023/12/30 21:22:10;;;;;;;14.18;3.63;;;;;;;8.80;99.76;100861.25;10530911;28;20404;-59
2023/12/30 21:27:33;;;;;;;16.63;4.38;;;;;;;8.80;99.82;100855.22;10529263;28;20048;-59
2023/12/30 21:32:56;;;;;;;14.85;4.07;;;;;;;8.76;100.00;100849.28;10540571;28;20135;-59
2023/12/30 21:38:21;;;;;;;14.82;3.60;;;;;;;8.76;100.00;100844.13;10560472;28;20040;-60
2023/12/30 21:43:54;;;;;;;13.13;3.47;;;;;;;8.73;100.00;100838.19;10527951;28;20336;-61
2023/12/30 21:49:19;;;;;;;10.05;3.30;;;;;;;8.75;100.00;100820.94;10524372;28;20068;-58
2023/12/30 21:54:44;;;;;;;12.95;3.33;;;;;;;8.71;100.00;100817.59;10530074;28;20123;-59
2023/12/30 22:00:08;;;;;;;9.05;3.10;;;;;;;8.69;99.77;100814.19;10512519;28;20515;-60
2023/12/30 22:05:35;;;;;;;13.13;3.33;;;;;;;8.70;99.27;100821.03;10529474;27;20056;-59
2023/12/30 22:10:58;;;;;;;8.48;2.72;;;;;;;8.68;99.55;100809.91;10534798;27;20543;-59
2023/12/30 22:16:20;;;;;;;10.98;2.75;;;;;;;8.68;99.76;100809.09;10542361;27;20039;-59
2023/12/30 22:21:43;;;;;;;10.65;2.80;;;;;;;8.64;100.00;100808.31;10553526;27;20129;-59
2023/12/30 22:27:06;;;;;;;11.13;2.97;;;;;;;8.65;98.66;100799.66;10531971;27;20489;-59
2023/12/30 22:32:27;;;;;;;11.85;2.70;;;;;;;8.65;99.00;100802.25;10543097;27;20048;-59
2023/12/30 22:37:49;;;;;;;9.23;2.90;;;;;;;8.69;99.10;100783.25;10555155;27;20057;-59
2023/12/30 22:43:11;;;;;;;9.40;2.85;;;;;;;8.74;99.17;100788.28;10543425;27;20457;-59
2023/12/30 22:48:33;;;;;;;9.05;2.70;;;;;;;8.67;98.60;100772.13;10541578;27;20072;-59
2023/12/30 22:53:54;;;;;;;11.77;2.95;;;;;;;8.68;98.68;100778.94;10539308;27;20052;-58
2023/12/30 22:59:16;;;;;;;8.75;3.10;;;;;;;8.65;98.29;100773.03;10539711;27;20123;-59
2023/12/30 23:04:38;;;;;;;7.78;2.95;;;;;;;8.67;98.73;100771.25;10544948;27;20054;-59
2023/12/30 23:09:59;;;;;;;12.48;3.33;;;;;;;8.65;98.63;100763.56;10551415;27;20051;-60
2023/12/30 23:15:21;;;;;;;11.73;3.33;;;;;;;8.65;98.68;100763.56;10544406;27;20051;-60
2023/12/30 23:20:43;;;;;;;12.13;3.20;;;;;;;8.58;98.75;100746.53;10546615;27;20075;-60
2023/12/30 23:26:07;;;;;;;8.80;3.33;;;;;;;8.54;98.51;100738.91;10547361;27;20055;-59
2023/12/30 23:31:30;;;;;;;8.97;3.03;;;;;;;8.47;97.65;100730.47;10553956;27;20048;-60
2023/12/30 23:36:51;;;;;;;12.52;3.40;;;;;;;8.48;97.70;100723.59;10544700;27;20047;-60
2023/12/30 23:42:13;;;;;;;8.75;2.88;;;;;;;8.49;98.22;100712.38;10541328;27;20440;-60
2023/12/30 23:47:34;;;;;;;7.43;2.58;;;;;;;8.53;98.36;100698.53;10540681;27;20042;-60
2023/12/30 23:52:56;;;;;;;9.95;2.70;;;;;;;8.54;98.43;100692.47;10541618;27;20133;-60
2023/12/30 23:58:18;;;;;;;11.00;2.75;;;;;;;8.50;97.98;100678.81;10562324;27;20040;-60
